Latest Coastal Weather Observations for St Helens

IDT60701

Issued at 1:15 am EST Friday 25 July 2014 (issued every 10 minutes, with the page automatically refreshed every 10 minutes)

About coastal observations | Map of coastal stations | Coastal observations for TAS | Marine services | Other Formats
Station Details ID: 092120 Name: ST HELENS AERODROME Lat: -41.34 Lon: 148.28 Height: 48.0 m
Data from the previous 72 hours. | See also: Recent months at St Helens
Date/Time
EST
Temp

°C
Wind Pressure Rain
since 9am
mm
Weather Cloud Vis
km
Sea
Height
m
Swell
Dir
 
Speed
knots
Gust
knots
hPa Trend Height
m
Period
s
Dir
25/01:00am 8.3 NNW 5 6 1017.4 - 0.0 - - - - - - -
25/12:30am 8.1 N 3 5 1017.4 - 0.0 - - - - - - -
25/12:00am 8.1 NW 4 5 1017.8 - 0.0 - - - - - - -
 
Date/Time
EST
Temp

°C
Wind Pressure Rain
since 9am
mm
Weather Cloud Vis
km
Sea
Height
m
Swell
Dir
 
Speed
knots
Gust
knots
hPa Trend Height
m
Period
s
Dir
24/11:30pm 8.2 NW 4 5 1018.0 - 0.0 - - - - - - -
24/11:00pm 9.2 SW 3 5 1018.1 - 0.0 - - - - - - -
24/10:30pm 8.3 WNW 3 4 1018.2 - 0.0 - - - - - - -
24/10:00pm 8.4 CALM 0 0 1018.2 - 0.0 - - - - - - -
24/09:30pm 8.8 SSE 1 4 1018.4 - 0.0 - - - - - - -
24/09:00pm 8.6 NW 1 3 1018.7 - 0.0 - - - - - - -
24/08:30pm 8.6 CALM 0 0 1018.6 - 0.0 - - - - - - -
24/08:00pm 9.4 CALM 0 0 1018.5 - 0.0 - - - - - - -
24/07:30pm 9.3 SSW 1 3 1018.5 - 0.0 - - - - - - -
24/07:00pm 8.8 SW 1 5 1018.5 - 0.0 - - - - - - -
24/06:30pm 10.5 S 2 5 1018.3 - 0.0 - - - - - - -
24/06:00pm 10.2 S 4 6 1018.3 - 0.0 - - - - - - -
24/05:30pm 10.3 S 4 6 1018.2 - 0.0 - - - - - - -
24/05:00pm 10.5 S 4 5 1018.1 - 0.0 - - - - - - -
24/04:30pm 11.6 S 3 5 1018.1 - 0.0 - - - - - - -
24/04:00pm 12.3 S 2 5 1018.2 - 0.0 - - - - - - -
24/03:30pm 12.6 S 3 5 1018.1 - 0.0 - - - - - - -
24/03:00pm 12.7 SSE 2 5 1018.0 - 0.0 - - - - - - -
24/02:30pm 12.6 S 3 5 1017.9 - 0.0 - - - - - - -
24/02:00pm 12.6 SSW 2 5 1018.1 - 0.0 - - - - - - -
24/01:30pm 12.9 CALM 0 0 1018.5 - 0.0 - - - - - - -
24/01:00pm 12.1 CALM 0 0 1018.8 - 0.0 - - - - - - -
24/12:30pm 11.6 CALM 0 0 1019.1 - 0.0 - - - - - - -
24/12:00pm 10.5 CALM 0 0 1019.5 - 0.0 - - - - - - -
24/11:30am 10.8 CALM 0 0 1019.9 - 0.0 - - - - - - -
24/11:00am 8.8 NW 4 5 1020.4 - 0.0 - - - - - - -
24/10:30am 7.7 NW 4 6 1020.6 - 0.0 - - - - - - -
24/10:00am 6.9 NW 5 7 1020.7 - 0.0 - - - - - - -
24/09:30am 5.6 NW 7 9 1020.6 - 0.0 - - - - - - -
24/09:00am 4.4 NW 7 9 1020.6 - 0.2 Fine Partly cloudy 25 - - - -
24/08:30am 3.5 NW 8 9 1020.4 - 0.2 - - - - - - -
24/08:00am 3.0 NW 7 9 1020.2 - 0.2 - - - - - - -
24/07:30am 2.7 NW 7 8 1020.2 - 0.2 - - - - - - -
24/07:00am 2.8 NW 8 9 1020.2 - 0.2 - - - - - - -
24/06:30am 3.0 NW 7 9 1020.0 - 0.0 - - - - - - -
24/06:00am 2.9 NW 7 9 1020.2 - 0.0 - - - - - - -
24/05:30am 3.2 NW 6 8 1020.0 - 0.0 - - - - - - -
24/05:00am 3.3 NW 8 9 1020.1 - 0.0 - - - - - - -
24/04:30am 3.3 NNW 9 10 1020.2 - 0.0 - - - - - - -
24/04:00am 3.3 NW 8 10 1020.2 - 0.0 - - - - - - -
24/03:30am 3.2 NNW 8 9 1020.1 - 0.0 - - - - - - -
24/03:00am 3.3 NW 8 10 1020.4 - 0.0 - - - - - - -
24/02:30am 3.2 NNW 7 8 1020.4 - 0.0 - - - - - - -
24/02:00am 3.4 NNW 7 8 1020.5 - 0.0 - - - - - - -
24/01:30am 3.4 NNW 8 9 1020.6 - 0.0 - - - - - - -
24/01:00am 3.7 NNW 8 9 1020.8 - 0.0 - - - - - - -
24/12:30am 3.6 NW 8 9 1021.0 - 0.0 - - - - - - -
24/12:00am 3.7 NNW 8 9 1021.4 - 0.0 - - - - - - -
 
Date/Time
EST
Temp

°C
Wind Pressure Rain
since 9am
mm
Weather Cloud Vis
km
Sea
Height
m
Swell
Dir
 
Speed
knots
Gust
knots
hPa Trend Height
m
Period
s
Dir
23/11:30pm 4.0 NNW 7 9 1021.7 - 0.0 - - - - - - -
23/11:00pm 4.1 NNW 6 8 1021.9 - 0.0 - - - - - - -
23/10:30pm 4.3 NNW 6 8 1022.0 - 0.0 - - - - - - -
23/10:00pm 4.8 NNW 7 9 1022.2 - 0.0 - - - - - - -
23/09:30pm 4.9 NNW 6 7 1022.3 - 0.0 - - - - - - -
23/09:00pm 4.8 NNW 7 8 1022.3 - 0.0 - - - - - - -
23/08:30pm 5.3 NNW 5 7 1022.1 - 0.0 - - - - - - -
23/08:00pm 5.6 NNW 6 7 1022.1 - 0.0 - - - - - - -
23/07:30pm 6.3 NNW 6 7 1022.2 - 0.0 - - - - - - -
23/07:00pm 5.9 NW 2 5 1022.2 - 0.0 - - - - - - -
23/06:30pm 8.2 CALM 0 0 1021.9 - 0.0 - - - - - - -
23/06:00pm 7.9 CALM 0 0 1021.9 - 0.0 - - - - - - -
23/05:30pm 8.8 CALM 0 0 1021.6 - 0.0 - - - - - - -
23/05:00pm 10.1 E 3 4 1021.4 - 0.0 - - - - - - -
23/04:30pm 11.1 E 3 4 1021.6 - 0.0 - - - - - - -
23/04:00pm 12.3 ENE 4 5 1021.7 - 0.0 - - - - - - -
23/03:30pm 12.4 ENE 6 7 1021.5 - 0.0 - - - - - - -
23/03:00pm 12.6 E 5 8 1021.6 - 0.0 - - - - - - -
23/02:30pm 13.3 ESE 4 7 1021.4 - 0.0 - - - - - - -
23/02:00pm 13.5 NW 3 6 1021.6 - 0.0 - - - - - - -
23/01:30pm 13.9 N 4 5 1021.8 - 0.0 - - - - - - -
23/01:00pm 13.2 N 4 5 1022.3 - 0.0 - - - - - - -
23/12:30pm 13.1 NNW 5 5 1022.7 - 0.0 - - - - - - -
23/12:00pm 13.3 NNW 3 5 1023.4 - 0.0 - - - - - - -
23/11:30am 12.5 NNW 2 4 1023.9 - 0.0 - - - - - - -
23/11:00am 10.7 NW 2 4 1024.2 - 0.0 - - - - - - -
23/10:30am 9.4 NW 4 5 1024.5 - 0.0 - - - - - - -
23/10:00am 7.4 NW 5 6 1024.4 - 0.0 - - - - - - -
23/09:30am 5.8 NW 6 8 1024.5 - 0.0 - - - - - - -
23/09:00am 4.4 NW 6 7 1024.5 - 0.2 Fine Mostly clear 30 - - - -
23/08:30am 3.6 NNW 6 8 1024.3 - 0.2 - - - - - - -
23/08:00am 2.6 NW 7 9 1024.3 - 0.2 - - - - - - -
23/07:30am 2.5 NNW 7 9 1024.2 - 0.2 - - - - - - -
23/07:00am 2.5 NW 6 9 1023.9 - 0.2 - - - - - - -
23/06:30am 2.4 NW 7 9 1023.8 - 0.2 - - - - - - -
23/06:00am 2.6 NNW 7 9 1023.8 - 0.2 - - - - - - -
23/05:30am 2.8 NNW 7 9 1023.8 - 0.2 - - - - - - -
23/05:00am 2.8 NW 6 7 1024.1 - 0.2 - - - - - - -
23/04:30am 3.0 NNW 5 8 1024.2 - 0.2 - - - - - - -
23/04:00am 2.7 NW 5 7 1024.2 - 0.2 - - - - - - -
23/03:30am 3.0 NW 7 8 1024.1 - 0.2 - - - - - - -
23/03:00am 2.9 NW 6 8 1024.3 - 0.0 - - - - - - -
23/02:30am 3.5 NW 7 9 1024.2 - 0.0 - - - - - - -
23/02:00am 3.4 NW 6 8 1024.2 - 0.0 - - - - - - -
23/01:30am 3.5 NW 7 8 1024.2 - 0.0 - - - - - - -
23/01:00am 3.7 NW 6 8 1024.2 - 0.0 - - - - - - -
23/12:30am 3.7 NW 6 8 1024.5 - 0.0 - - - - - - -
23/12:00am 3.7 NW 5 7 1024.6 - 0.0 - - - - - - -
 
Date/Time
EST
Temp

°C
Wind Pressure Rain
since 9am
mm
Weather Cloud Vis
km
Sea
Height
m
Swell
Dir
 
Speed
knots
Gust
knots
hPa Trend Height
m
Period
s
Dir
22/11:30pm 4.0 NW 8 9 1024.7 - 0.0 - - - - - - -
22/11:00pm 4.4 NW 7 9 1024.7 - 0.0 - - - - - - -
22/10:30pm 5.1 NW 7 8 1024.7 - 0.0 - - - - - - -
22/10:00pm 5.3 NW 7 9 1024.8 - 0.0 - - - - - - -
22/09:30pm 5.5 NNW 6 8 1024.9 - 0.0 - - - - - - -
22/09:00pm 5.6 NNW 7 9 1025.1 - 0.0 - - - - - - -
22/08:30pm 6.0 NNW 5 7 1024.9 - 0.0 - - - - - - -
22/08:00pm 6.1 NNW 5 6 1024.9 - 0.0 - - - - - - -
22/07:30pm 6.3 NNW 5 7 1024.9 - 0.0 - - - - - - -
22/07:00pm 6.2 NNW 4 5 1024.8 - 0.0 - - - - - - -
22/06:30pm 6.9 NNW 3 4 1024.7 - 0.0 - - - - - - -
22/06:00pm 8.0 NW 3 4 1024.5 - 0.0 - - - - - - -
22/05:30pm 9.6 E 1 3 1024.3 - 0.0 - - - - - - -
22/05:00pm 10.0 ESE 3 4 1024.2 - 0.0 - - - - - - -
22/04:30pm 10.3 ESE 3 4 1024.1 - 0.0 - - - - - - -
22/04:00pm 11.2 E 4 5 1024.0 - 0.0 - - - - - - -
22/03:30pm 10.9 ESE 2 5 1024.0 - 0.0 - - - - - - -
22/03:00pm 12.3 E 2 5 1024.0 - 0.0 - - - - - - -
22/02:30pm 12.6 E 5 8 1024.0 - 0.0 - - - - - - -
22/02:00pm 12.4 E 6 9 1024.0 - 0.0 - - - - - - -
22/01:30pm 11.9 E 7 9 1024.1 - 0.0 - - - - - - -
22/01:00pm 13.2 NNE 2 7 1024.4 - 0.0 - - - - - - -
22/12:30pm 13.3 NW 2 4 1024.7 - 0.0 - - - - - - -
22/12:00pm 12.8 NNW 4 5 1025.3 - 0.0 - - - - - - -
22/11:30am 10.8 NW 3 5 1025.8 - 0.0 - - - - - - -
22/11:00am 9.7 NNW 5 6 1026.1 - 0.0 - - - - - - -
22/10:30am 8.9 NNW 3 4 1026.3 - 0.0 - - - - - - -
22/10:00am 6.9 WNW 5 7 1026.6 - 0.0 - - - - - - -
22/09:30am 5.0 NNW 7 9 1026.5 - 0.0 - - - - - - -
22/09:00am 4.8 NW 6 9 1026.5 - 0.2 Fine Partly cloudy 25 - - - -
22/08:30am 4.4 NNW 7 9 1026.2 - 0.2 - - - - - - -
22/08:00am 3.9 NW 6 8 1026.1 - 0.2 - - - - - - -
22/07:30am 3.5 NW 7 9 1025.8 - 0.2 - - - - - - -
22/07:00am 3.2 WNW 5 6 1025.5 - 0.2 - - - - - - -
22/06:30am 3.5 NW 6 8 1025.6 - 0.2 - - - - - - -
22/06:00am 3.0 NW 8 10 1025.4 - 0.2 Fine Partly cloudy 25 - - - -
22/05:30am 2.7 NW 5 8 1025.1 - 0.2 - - - - - - -
22/05:00am 2.5 NNW 8 10 1025.2 - 0.2 - - - - - - -
22/04:30am 2.5 NW 8 11 1025.0 - 0.2 - - - - - - -
22/04:00am 2.8 NNW 8 9 1025.1 - 0.2 - - - - - - -
22/03:30am 2.8 NW 8 11 1025.2 - 0.2 - - - - - - -
22/03:00am 3.1 NNW 8 9 1025.4 - 0.2 - - - - - - -
22/02:30am 3.1 NW 7 9 1025.5 - 0.2 - - - - - - -
22/02:00am 3.2 NW 6 8 1025.5 - 0.2 - - - - - - -
22/01:30am 3.5 NW 7 8 1025.6 - 0.2 - - - - - - -

Other Formats:

Comma delimited format used in spreadsheet applications
http://www.bom.gov.au/fwo/IDT60701/IDT60701.95981.axf

JavaScript Object Notation format (JSON) in row-major order
http://www.bom.gov.au/fwo/IDT60701/IDT60701.95981.json